Time;durP1;ratioP1;P1;durP2;ratioP2;P2;SDS_P1;SDS_P2;PMS_P1;PMS_P2;Temp;Humidity;BMP_temperature;BMP_pressure;BME280_temperature;BME280_humidity;BME280_pressure;Samples;Min_cycle;Max_cycle;Signal;HPM_P1;HPM_P2
2023/03/07 00:01:32;;;;;;;0.20;0.20;;;1.10;99.90;;;;;;5053247;28;20029;-72
2023/03/07 00:03:58;;;;;;;0.20;0.20;;;1.20;99.90;;;;;;5053230;28;20478;-72
2023/03/07 00:06:24;;;;;;;0.20;0.20;;;1.30;99.90;;;;;;5053192;28;20074;-72
2023/03/07 00:08:57;;;;;;;0.20;0.20;;;1.30;99.90;;;;;;5053096;28;20529;-71
2023/03/07 00:11:23;;;;;;;0.20;0.20;;;1.30;99.90;;;;;;5053163;28;20029;-71
2023/03/07 00:13:49;;;;;;;0.10;0.10;;;1.40;99.90;;;;;;5053116;28;20032;-72
2023/03/07 00:16:17;;;;;;;0.20;0.20;;;1.40;99.90;;;;;;5035170;28;20386;-72
2023/03/07 00:18:43;;;;;;;0.20;0.20;;;1.50;99.90;;;;;;5035163;28;20048;-72
2023/03/07 00:21:12;;;;;;;0.20;0.20;;;1.50;99.90;;;;;;5053049;28;20486;-71
2023/03/07 00:23:39;;;;;;;0.20;0.20;;;1.60;99.90;;;;;;5053303;28;20425;-71
2023/03/07 00:26:09;;;;;;;0.10;0.10;;;1.70;99.90;;;;;;5052897;28;20471;-71
2023/03/07 00:28:34;;;;;;;0.20;0.20;;;2.00;99.90;;;;;;5052830;28;20032;-71
2023/03/07 00:31:02;;;;;;;0.20;0.20;;;2.20;99.90;;;;;;5035083;28;20022;-71
2023/03/07 00:33:28;;;;;;;0.20;0.20;;;2.20;99.90;;;;;;5052906;28;20052;-71
2023/03/07 00:35:59;;;;;;;5.40;2.42;;;2.30;99.90;;;;;;5052942;28;20482;-71
2023/03/07 00:38:25;;;;;;;1.27;0.93;;;2.30;99.90;;;;;;5056642;28;20064;-71
2023/03/07 00:40:58;;;;;;;10.52;5.40;;;2.30;99.90;;;;;;5056968;28;20033;-71
2023/03/07 00:43:23;;;;;;;0.87;0.87;;;2.40;99.90;;;;;;5039125;28;20052;-72
2023/03/07 00:45:49;;;;;;;4.75;1.58;;;2.50;99.90;;;;;;5056738;28;20126;-71
2023/03/07 00:48:17;;;;;;;1.98;1.80;;;2.50;99.90;;;;;;5056767;28;20029;-71
2023/03/07 00:50:42;;;;;;;2.55;1.38;;;2.50;99.90;;;;;;5057061;28;20024;-71
2023/03/07 00:53:08;;;;;;;4.85;2.15;;;2.50;99.90;;;;;;5056725;28;20021;-71
2023/03/07 00:55:33;;;;;;;4.40;1.50;;;2.50;99.90;;;;;;5056610;28;20100;-72
2023/03/07 00:57:59;;;;;;;5.32;3.28;;;2.60;99.90;;;;;;5056643;28;20056;-72
2023/03/07 01:00:24;;;;;;;2.60;1.10;;;2.60;99.90;;;;;;5056616;28;20025;-72
2023/03/07 01:02:50;;;;;;;2.38;1.67;;;2.60;99.90;;;;;;5056807;28;20385;-72
2023/03/07 01:05:16;;;;;;;0.30;0.30;;;2.60;99.90;;;;;;5056438;28;20036;-72
2023/03/07 01:07:41;;;;;;;7.25;3.50;;;2.60;99.90;;;;;;5056644;28;20470;-72
2023/03/07 01:10:07;;;;;;;7.63;3.90;;;2.70;99.90;;;;;;5056672;28;20070;-72
2023/03/07 01:12:34;;;;;;;4.30;1.77;;;2.70;99.90;;;;;;5056379;28;20067;-72
2023/03/07 01:14:59;;;;;;;25.58;23.42;;;2.70;99.90;;;;;;5056201;28;20029;-72
2023/03/07 01:17:25;;;;;;;19.38;18.02;;;2.70;99.90;;;;;;5056256;28;20104;-72
2023/03/07 01:19:51;;;;;;;5.15;1.40;;;2.80;99.90;;;;;;5056232;28;20027;-72
2023/03/07 01:22:16;;;;;;;6.15;2.35;;;2.80;99.90;;;;;;5056197;28;20367;-72
2023/03/07 01:24:42;;;;;;;31.88;29.38;;;2.90;99.90;;;;;;5056070;28;20033;-72
2023/03/07 01:27:07;;;;;;;29.42;27.27;;;2.90;99.90;;;;;;5056352;28;20021;-72
2023/03/07 01:29:33;;;;;;;29.20;26.38;;;2.90;99.90;;;;;;5056239;28;20112;-72
2023/03/07 01:31:58;;;;;;;7.72;4.88;;;2.90;99.90;;;;;;5056011;28;20021;-72
2023/03/07 01:34:24;;;;;;;0.57;0.57;;;2.80;99.90;;;;;;5056233;28;20032;-72
2023/03/07 01:36:49;;;;;;;1.27;1.20;;;2.80;99.90;;;;;;5055853;28;20036;-72
2023/03/07 01:39:16;;;;;;;2.90;2.67;;;2.80;99.90;;;;;;5056170;28;20017;-72
2023/03/07 01:41:42;;;;;;;2.72;1.17;;;2.70;99.90;;;;;;5055867;28;20075;-72
2023/03/07 01:44:52;;;;;;;1.85;1.25;;;2.80;99.90;;;;;;5056132;28;20064;-72
2023/03/07 01:47:18;;;;;;;2.72;2.15;;;2.80;99.90;;;;;;5045388;28;20048;-72
2023/03/07 01:49:45;;;;;;;1.80;1.40;;;2.80;99.90;;;;;;5054830;28;20394;-72
2023/03/07 01:52:17;;;;;;;10.73;4.35;;;2.80;99.90;;;;;;5055681;28;20103;-72
2023/03/07 01:54:53;;;;;;;0.47;0.47;;;2.80;99.90;;;;;;5055568;28;20017;-72
2023/03/07 01:57:21;;;;;;;3.65;2.28;;;2.80;99.90;;;;;;5055879;28;20075;-72
2023/03/07 01:59:52;;;;;;;15.90;0.90;;;2.80;99.90;;;;;;5037623;28;20017;-72
2023/03/07 02:02:21;;;;;;;0.68;0.68;;;2.80;99.90;;;;;;5055670;28;20024;-72
2023/03/07 02:05:29;;;;;;;0.50;0.50;;;2.80;99.90;;;;;;5055313;28;20090;-71
2023/03/07 02:07:59;;;;;;;3.70;1.95;;;2.70;99.90;;;;;;5013991;28;20036;-72
2023/03/07 02:10:24;;;;;;;1.42;1.27;;;2.70;99.90;;;;;;5013852;28;20022;-72
2023/03/07 02:12:53;;;;;;;0.95;0.55;;;2.50;99.90;;;;;;5035176;28;20039;-72
2023/03/07 02:15:18;;;;;;;0.40;0.40;;;2.50;99.90;;;;;;5055161;28;20029;-72
2023/03/07 02:17:44;;;;;;;0.22;0.22;;;2.40;99.90;;;;;;5055142;28;20116;-72
2023/03/07 02:20:47;;;;;;;0.80;0.80;;;2.40;99.90;;;;;;5055145;28;20071;-72
2023/03/07 02:23:39;;;;;;;0.20;0.20;;;2.40;99.90;;;;;;5055056;28;20033;-72
2023/03/07 02:26:15;;;;;;;15.60;13.88;;;2.40;99.90;;;;;;5054422;28;20131;-72
2023/03/07 02:28:41;;;;;;;2.55;1.10;;;2.40;99.90;;;;;;5055124;28;20029;-72
2023/03/07 02:31:09;;;;;;;0.55;0.55;;;2.50;99.90;;;;;;5054916;28;20051;-72
2023/03/07 02:33:34;;;;;;;1.15;0.55;;;2.40;99.90;;;;;;5054861;28;20486;-72
2023/03/07 02:36:16;;;;;;;0.52;0.50;;;2.40;99.90;;;;;;5055021;28;20059;-72
2023/03/07 02:38:44;;;;;;;9.80;5.93;;;2.40;99.90;;;;;;5055091;28;20048;-72
2023/03/07 02:41:12;;;;;;;0.20;0.20;;;2.40;99.90;;;;;;5055001;28;20021;-72
2023/03/07 02:43:37;;;;;;;0.13;0.13;;;2.40;99.90;;;;;;5054948;28;20021;-72
2023/03/07 02:46:03;;;;;;;0.10;0.10;;;2.40;99.90;;;;;;5054355;28;20044;-72
2023/03/07 02:48:29;;;;;;;0.20;0.20;;;2.50;99.90;;;;;;5054742;28;20029;-72
2023/03/07 02:50:54;;;;;;;0.52;0.52;;;2.40;99.90;;;;;;5054506;28;20031;-72
2023/03/07 02:53:20;;;;;;;4.03;1.60;;;2.50;99.90;;;;;;5054668;28;20029;-72
2023/03/07 02:55:46;;;;;;;3.30;1.10;;;2.60;99.90;;;;;;5054515;28;20548;-72
2023/03/07 02:58:11;;;;;;;13.00;1.38;;;2.70;99.90;;;;;;5054671;28;20096;-72
2023/03/07 03:00:37;;;;;;;2.22;0.68;;;2.80;99.90;;;;;;5053510;28;20391;-72
2023/03/07 03:03:03;;;;;;;18.90;17.45;;;3.00;99.90;;;;;;5054322;28;20036;-72
2023/03/07 03:05:28;;;;;;;0.20;0.20;;;3.10;99.90;;;;;;5054439;28;20028;-72
2023/03/07 03:07:54;;;;;;;4.03;3.83;;;3.20;99.90;;;;;;5054125;28;20375;-72
2023/03/07 03:10:19;;;;;;;0.20;0.20;;;3.20;99.90;;;;;;5054185;28;20096;-72
2023/03/07 03:12:45;;;;;;;0.30;0.30;;;3.30;99.90;;;;;;5054096;28;20021;-72
2023/03/07 03:15:11;;;;;;;0.30;0.30;;;3.40;99.90;;;;;;5054230;28;20021;-72
2023/03/07 03:17:37;;;;;;;0.50;0.50;;;3.30;99.90;;;;;;5054296;28;20021;-72
2023/03/07 03:20:11;;;;;;;0.50;0.50;;;3.40;99.90;;;;;;5054171;28;20037;-72
2023/03/07 03:22:40;;;;;;;1.48;0.75;;;3.40;99.90;;;;;;5053976;28;20017;-72
2023/03/07 03:25:08;;;;;;;5.22;4.82;;;3.50;99.90;;;;;;5053799;28;20029;-72
2023/03/07 03:27:35;;;;;;;6.75;1.45;;;3.50;99.90;;;;;;5053990;28;20040;-72
2023/03/07 03:30:01;;;;;;;5.57;5.18;;;3.60;99.90;;;;;;5053812;28;20021;-72
2023/03/07 03:32:27;;;;;;;3.63;2.75;;;3.70;99.90;;;;;;5053760;28;20050;-72
2023/03/07 03:34:52;;;;;;;2.85;1.55;;;3.70;99.90;;;;;;5053702;28;20079;-72
2023/03/07 03:37:18;;;;;;;2.63;2.42;;;3.80;99.90;;;;;;5053839;28;20023;-72
2023/03/07 03:39:43;;;;;;;3.17;2.97;;;3.80;99.90;;;;;;5053652;28;20366;-72
2023/03/07 03:42:09;;;;;;;2.65;0.75;;;3.90;99.90;;;;;;5053606;28;20501;-72
2023/03/07 03:44:34;;;;;;;0.75;0.75;;;3.80;99.90;;;;;;5053586;28;20037;-72
2023/03/07 03:47:00;;;;;;;3.28;3.00;;;3.90;99.90;;;;;;5053595;28;20543;-72
2023/03/07 03:49:26;;;;;;;5.43;3.00;;;3.80;99.90;;;;;;5053699;28;20537;-71
2023/03/07 03:51:52;;;;;;;0.88;0.82;;;3.70;99.90;;;;;;5053427;28;20029;-71
2023/03/07 03:54:17;;;;;;;5.57;3.15;;;3.50;99.90;;;;;;5053393;28;20063;-71
2023/03/07 03:56:43;;;;;;;0.82;0.82;;;3.40;99.90;;;;;;5053309;28;20031;-71
2023/03/07 03:59:08;;;;;;;11.77;2.88;;;3.50;99.90;;;;;;5053597;28;20079;-71
2023/03/07 04:01:34;;;;;;;13.02;2.85;;;3.40;99.90;;;;;;5053300;28;20037;-72
2023/03/07 04:03:59;;;;;;;1.38;1.00;;;3.40;99.90;;;;;;5053534;28;20029;-71
2023/03/07 04:06:31;;;;;;;3.97;1.30;;;3.30;99.90;;;;;;5053127;28;20029;-72
2023/03/07 04:08:57;;;;;;;8.90;1.55;;;3.30;99.90;;;;;;5053402;28;20029;-72
2023/03/07 04:11:23;;;;;;;0.98;0.93;;;3.40;99.90;;;;;;5052810;28;20028;-72
2023/03/07 04:13:49;;;;;;;3.15;2.05;;;3.40;99.90;;;;;;5053143;28;20100;-72
2023/03/07 04:16:15;;;;;;;0.45;0.45;;;3.40;99.90;;;;;;5053104;28;20097;-72
2023/03/07 04:18:41;;;;;;;1.00;1.00;;;3.30;99.90;;;;;;5053093;28;20542;-72
2023/03/07 04:21:09;;;;;;;7.32;1.20;;;3.40;99.90;;;;;;5053040;28;20174;-72
2023/03/07 04:23:35;;;;;;;10.02;2.15;;;3.40;99.90;;;;;;5053024;28;20025;-72
2023/03/07 04:26:03;;;;;;;4.50;4.13;;;3.50;99.90;;;;;;5052927;28;20029;-72
2023/03/07 04:28:44;;;;;;;22.02;2.95;;;3.60;99.90;;;;;;5052912;28;20478;-72
2023/03/07 04:31:18;;;;;;;3.42;1.08;;;3.60;99.90;;;;;;5052997;28;20052;-72
2023/03/07 04:33:44;;;;;;;6.30;1.48;;;3.70;99.90;;;;;;5052973;28;20018;-72
2023/03/07 04:36:10;;;;;;;1.73;1.63;;;3.70;99.90;;;;;;5052832;28;20032;-72
2023/03/07 04:38:37;;;;;;;1.17;1.08;;;3.70;99.90;;;;;;5052737;28;20029;-72
2023/03/07 04:41:04;;;;;;;14.07;1.55;;;3.70;99.90;;;;;;5052872;28;20116;-72
2023/03/07 04:43:30;;;;;;;4.95;3.25;;;3.70;99.90;;;;;;5052840;28;20029;-72
2023/03/07 04:45:55;;;;;;;4.88;2.28;;;3.70;99.90;;;;;;5052616;28;20037;-72
2023/03/07 04:48:21;;;;;;;2.60;1.85;;;3.60;99.90;;;;;;5052727;28;20071;-72
2023/03/07 04:50:51;;;;;;;2.45;0.93;;;3.50;99.90;;;;;;5052776;28;20104;-72
2023/03/07 04:53:17;;;;;;;4.07;2.33;;;3.50;99.90;;;;;;5052726;28;20101;-72
2023/03/07 04:55:43;;;;;;;12.20;1.33;;;3.60;99.90;;;;;;5034824;28;20040;-72
2023/03/07 04:58:11;;;;;;;13.80;4.05;;;3.60;99.90;;;;;;5052713;28;20498;-72
2023/03/07 05:00:41;;;;;;;3.72;1.02;;;3.50;99.90;;;;;;5052679;28;20024;-72
2023/03/07 05:03:09;;;;;;;2.10;1.15;;;3.60;99.90;;;;;;5052645;28;20029;-72
2023/03/07 05:05:35;;;;;;;18.25;3.00;;;3.50;99.90;;;;;;5052569;28;20029;-72
2023/03/07 05:08:01;;;;;;;0.98;0.63;;;3.60;99.90;;;;;;5053094;28;20116;-72
2023/03/07 05:10:27;;;;;;;2.17;2.05;;;3.60;99.90;;;;;;5052776;28;20021;-72
2023/03/07 05:12:52;;;;;;;23.58;1.70;;;3.60;99.90;;;;;;5053113;28;20512;-72
2023/03/07 05:15:18;;;;;;;0.45;0.40;;;3.60;99.90;;;;;;5052500;28;20040;-72
2023/03/07 05:17:43;;;;;;;0.85;0.82;;;3.60;99.90;;;;;;5052506;28;20043;-72
2023/03/07 05:20:10;;;;;;;1.67;1.55;;;3.50;99.90;;;;;;5052509;28;20056;-72
2023/03/07 05:22:36;;;;;;;0.32;0.30;;;3.50;99.90;;;;;;5052515;28;20477;-72
2023/03/07 05:25:01;;;;;;;25.75;23.75;;;3.50;99.90;;;;;;5055238;28;20027;-72
2023/03/07 05:27:27;;;;;;;10.10;1.55;;;3.50;99.90;;;;;;5056401;28;20021;-72
2023/03/07 05:29:52;;;;;;;0.10;0.10;;;3.40;99.90;;;;;;5038157;28;20063;-73
2023/03/07 05:32:18;;;;;;;7.13;1.38;;;3.30;99.90;;;;;;5056072;28;20100;-73
2023/03/07 05:34:45;;;;;;;6.32;0.55;;;3.20;99.90;;;;;;5056219;28;20021;-72
2023/03/07 05:37:11;;;;;;;7.40;6.47;;;3.20;99.90;;;;;;5056421;28;20028;-72
2023/03/07 05:39:37;;;;;;;3.60;3.40;;;3.30;99.90;;;;;;5056182;28;20029;-72
2023/03/07 05:42:03;;;;;;;1.10;1.10;;;3.30;99.90;;;;;;5055891;28;20058;-72
2023/03/07 05:44:28;;;;;;;3.58;1.48;;;3.10;99.90;;;;;;5055847;28;20051;-72
2023/03/07 05:46:54;;;;;;;1.95;0.50;;;3.00;99.90;;;;;;5055584;28;20120;-72
2023/03/07 05:49:20;;;;;;;5.53;0.80;;;2.90;99.90;;;;;;5055684;28;20401;-72
2023/03/07 05:51:45;;;;;;;2.92;0.52;;;2.90;99.90;;;;;;5055957;28;20130;-72
2023/03/07 05:54:11;;;;;;;3.15;2.83;;;2.90;99.90;;;;;;5055915;28;20029;-72
2023/03/07 05:56:36;;;;;;;4.65;0.70;;;3.00;99.90;;;;;;5055517;28;20425;-72
2023/03/07 05:59:02;;;;;;;0.45;0.40;;;3.00;99.90;;;;;;5055562;28;20027;-72
2023/03/07 06:01:28;;;;;;;0.75;0.52;;;3.10;99.90;;;;;;5055525;28;20029;-72
2023/03/07 06:03:54;;;;;;;2.28;0.80;;;3.10;99.90;;;;;;5055744;28;20029;-72
2023/03/07 06:06:19;;;;;;;8.35;1.23;;;3.20;99.90;;;;;;5055332;28;20108;-72
2023/03/07 06:08:45;;;;;;;7.32;0.55;;;3.20;99.90;;;;;;5055840;28;20033;-72
2023/03/07 06:11:10;;;;;;;3.58;3.35;;;3.20;99.90;;;;;;5055883;28;20105;-73
2023/03/07 06:13:36;;;;;;;3.15;2.90;;;3.20;99.90;;;;;;5055295;28;20021;-72
2023/03/07 06:16:01;;;;;;;5.68;2.10;;;3.10;99.90;;;;;;5055475;28;20482;-72
2023/03/07 06:18:27;;;;;;;2.30;0.35;;;3.10;99.90;;;;;;5055205;28;20489;-72
2023/03/07 06:21:15;;;;;;;2.75;1.13;;;2.80;99.90;;;;;;5055142;28;20036;-71
2023/03/07 06:23:40;;;;;;;3.55;1.95;;;2.70;99.90;;;;;;5055954;28;20392;-71
2023/03/07 06:26:07;;;;;;;3.65;1.15;;;2.60;99.90;;;;;;5055262;28;20025;-71
2023/03/07 06:28:33;;;;;;;6.07;2.40;;;2.60;99.90;;;;;;5054943;28;20051;-71
2023/03/07 06:30:59;;;;;;;6.63;1.30;;;2.70;99.90;;;;;;5054987;28;20017;-72
2023/03/07 06:33:25;;;;;;;5.60;1.90;;;2.70;99.90;;;;;;5054903;28;20032;-72
2023/03/07 06:35:50;;;;;;;0.63;0.60;;;2.80;99.90;;;;;;5054806;28;20027;-72
2023/03/07 06:38:16;;;;;;;9.30;1.65;;;2.90;99.90;;;;;;5054846;28;20055;-72
2023/03/07 06:40:42;;;;;;;3.40;1.52;;;3.00;99.90;;;;;;5054801;28;20025;-72
2023/03/07 06:43:09;;;;;;;14.10;2.15;;;3.00;99.90;;;;;;5054974;28;20024;-72
2023/03/07 06:45:36;;;;;;;4.57;2.28;;;3.00;99.90;;;;;;5054453;28;20068;-72
2023/03/07 06:48:01;;;;;;;11.32;2.28;;;3.00;99.90;;;;;;5054555;28;20124;-72
2023/03/07 06:50:27;;;;;;;12.93;1.35;;;2.90;99.90;;;;;;5054734;28;20060;-72
2023/03/07 06:52:52;;;;;;;9.38;1.65;;;2.80;99.90;;;;;;5054522;28;20036;-72
2023/03/07 06:55:18;;;;;;;6.25;1.85;;;2.70;99.90;;;;;;5054430;28;20067;-72
2023/03/07 06:57:44;;;;;;;6.88;4.93;;;2.60;99.90;;;;;;5054697;28;20109;-72
2023/03/07 07:00:10;;;;;;;0.20;0.20;;;2.50;99.90;;;;;;5054498;28;20390;-72
2023/03/07 07:02:36;;;;;;;0.20;0.20;;;2.60;99.90;;;;;;5054296;28;20025;-72
2023/03/07 07:05:02;;;;;;;0.20;0.20;;;2.60;99.90;;;;;;5054251;28;20032;-72
2023/03/07 07:07:27;;;;;;;0.20;0.20;;;2.70;99.90;;;;;;5036392;28;20478;-73
2023/03/07 07:09:53;;;;;;;0.20;0.20;;;2.90;99.90;;;;;;5054373;28;20029;-73
2023/03/07 07:12:18;;;;;;;0.20;0.20;;;2.90;99.90;;;;;;5036299;28;20504;-73
2023/03/07 07:14:44;;;;;;;0.38;0.20;;;2.90;99.90;;;;;;5054091;28;20566;-72
2023/03/07 07:17:10;;;;;;;0.20;0.20;;;2.90;99.90;;;;;;5054270;28;20025;-73
2023/03/07 07:19:35;;;;;;;0.20;0.20;;;3.00;99.90;;;;;;5054071;28;20033;-73
2023/03/07 07:22:01;;;;;;;0.20;0.20;;;3.00;99.90;;;;;;5054035;28;20024;-73
2023/03/07 07:24:26;;;;;;;0.20;0.20;;;3.00;99.90;;;;;;5053945;28;20078;-73
2023/03/07 07:26:52;;;;;;;0.20;0.20;;;3.00;99.90;;;;;;5053804;28;20112;-72
2023/03/07 07:29:19;;;;;;;0.20;0.20;;;2.90;99.90;;;;;;5035972;28;20127;-73
2023/03/07 07:31:45;;;;;;;0.20;0.20;;;3.00;99.90;;;;;;5054089;28;20100;-73
2023/03/07 07:34:11;;;;;;;2.78;0.95;;;3.00;99.90;;;;;;5053964;28;20457;-72
2023/03/07 07:36:36;;;;;;;5.88;0.85;;;3.00;99.90;;;;;;5053695;28;20027;-72
2023/03/07 07:39:05;;;;;;;7.75;1.25;;;2.90;99.90;;;;;;5035824;28;20024;-73
2023/03/07 07:41:32;;;;;;;8.30;2.30;;;2.90;99.90;;;;;;5053645;28;20059;-73
2023/03/07 07:43:57;;;;;;;0.50;0.50;;;3.00;99.90;;;;;;5053988;28;20025;-73
2023/03/07 07:46:24;;;;;;;2.65;1.17;;;3.10;99.90;;;;;;5052768;28;20037;-73
2023/03/07 07:48:49;;;;;;;8.95;8.05;;;3.30;99.90;;;;;;5053443;28;20029;-74
2023/03/07 07:51:15;;;;;;;0.20;0.20;;;3.30;99.90;;;;;;5053751;28;20021;-73
2023/03/07 07:53:40;;;;;;;0.20;0.20;;;3.30;99.90;;;;;;5053656;28;20390;-73
2023/03/07 07:56:06;;;;;;;0.28;0.28;;;3.30;99.90;;;;;;5053331;28;20032;-73
2023/03/07 07:58:32;;;;;;;0.20;0.20;;;3.30;99.90;;;;;;5053357;28;20108;-73
2023/03/07 08:00:57;;;;;;;0.28;0.28;;;3.20;99.90;;;;;;5053615;28;20390;-73
2023/03/07 08:03:23;;;;;;;0.20;0.20;;;3.20;99.90;;;;;;5053523;28;20025;-73
2023/03/07 08:05:49;;;;;;;0.10;0.10;;;3.30;99.90;;;;;;5053231;28;20032;-73
2023/03/07 08:08:16;;;;;;;0.85;0.68;;;3.40;99.90;;;;;;5053438;28;20020;-73
2023/03/07 08:10:43;;;;;;;5.03;0.80;;;3.60;99.90;;;;;;5053333;28;20455;-73
2023/03/07 08:13:11;;;;;;;4.90;0.82;;;3.60;99.90;;;;;;5053189;28;20104;-73
2023/03/07 08:15:37;;;;;;;3.65;0.85;;;3.50;99.90;;;;;;5053315;28;20474;-73
2023/03/07 08:18:03;;;;;;;6.82;1.38;;;3.30;99.90;;;;;;5053111;28;20043;-73
2023/03/07 08:20:28;;;;;;;4.55;2.63;;;3.00;99.90;;;;;;5053076;28;20040;-74
2023/03/07 08:22:54;;;;;;;10.63;1.50;;;3.00;99.90;;;;;;5053070;28;20410;-74
2023/03/07 08:25:22;;;;;;;7.88;0.95;;;3.00;99.90;;;;;;5052975;28;20376;-73
2023/03/07 08:27:51;;;;;;;7.65;0.63;;;3.00;99.90;;;;;;5035054;28;20487;-73
2023/03/07 08:30:17;;;;;;;9.38;1.13;;;2.90;99.90;;;;;;5035078;28;20064;-73
2023/03/07 08:32:43;;;;;;;9.57;2.22;;;3.10;99.90;;;;;;5052960;28;20067;-73
2023/03/07 08:35:09;;;;;;;3.20;0.47;;;3.40;99.90;;;;;;5052889;28;20504;-73
2023/03/07 08:37:34;;;;;;;0.10;0.10;;;3.40;99.90;;;;;;5053181;28;20017;-73
2023/03/07 08:40:00;;;;;;;10.55;9.40;;;3.10;99.90;;;;;;5052903;28;20029;-73
2023/03/07 08:42:25;;;;;;;8.98;7.88;;;2.90;99.90;;;;;;5052822;28;20104;-73
2023/03/07 08:44:51;;;;;;;31.13;28.42;;;2.90;99.90;;;;;;5052614;28;20110;-73
2023/03/07 08:47:16;;;;;;;13.68;12.50;;;2.90;99.90;;;;;;5052835;28;20367;-73
2023/03/07 08:49:42;;;;;;;0.65;0.65;;;3.30;99.90;;;;;;5053008;28;20025;-73
2023/03/07 08:52:07;;;;;;;0.10;0.10;;;3.30;99.90;;;;;;5052781;28;20021;-72
2023/03/07 08:54:33;;;;;;;0.10;0.10;;;2.60;99.90;;;;;;5052833;28;20104;-71
2023/03/07 08:56:59;;;;;;;0.20;0.20;;;2.20;99.90;;;;;;5052981;28;20023;-72
2023/03/07 08:59:25;;;;;;;0.10;0.10;;;2.10;99.90;;;;;;5038503;28;20405;-72
2023/03/07 09:01:50;;;;;;;0.10;0.10;;;2.00;99.90;;;;;;5056889;28;20029;-71
2023/03/07 09:04:16;;;;;;;0.20;0.20;;;1.80;99.90;;;;;;5056600;28;20474;-72
2023/03/07 09:06:41;;;;;;;0.10;0.10;;;1.70;99.90;;;;;;5056508;28;20033;-71
2023/03/07 09:09:07;;;;;;;0.10;0.10;;;1.90;99.90;;;;;;5056731;28;20032;-72
2023/03/07 09:11:32;;;;;;;0.20;0.20;;;2.20;99.90;;;;;;5056480;28;20079;-72
2023/03/07 09:13:58;;;;;;;0.20;0.20;;;2.30;99.90;;;;;;5057007;28;20025;-72
2023/03/07 09:16:24;;;;;;;0.10;0.10;;;2.50;99.90;;;;;;5056336;28;20508;-72
2023/03/07 09:18:49;;;;;;;3.13;2.92;;;2.60;99.90;;;;;;5056338;28;20021;-72
2023/03/07 09:21:15;;;;;;;0.10;0.10;;;2.70;99.90;;;;;;5056313;28;20025;-72
2023/03/07 09:23:42;;;;;;;0.20;0.20;;;2.90;99.90;;;;;;5056500;28;20029;-72
2023/03/07 09:26:09;;;;;;;0.10;0.10;;;3.20;99.90;;;;;;5056673;28;20031;-72
2023/03/07 09:28:34;;;;;;;0.10;0.10;;;3.30;99.90;;;;;;5056116;28;20039;-72
2023/03/07 09:31:06;;;;;;;0.10;0.10;;;3.30;99.90;;;;;;5056160;28;20401;-72
2023/03/07 09:33:31;;;;;;;0.10;0.10;;;3.20;99.90;;;;;;5056425;28;20478;-72
2023/03/07 09:35:58;;;;;;;0.10;0.10;;;3.10;99.90;;;;;;5056209;28;20060;-72
2023/03/07 09:38:24;;;;;;;0.10;0.10;;;2.90;99.90;;;;;;5056007;28;20552;-72
2023/03/07 09:40:49;;;;;;;0.20;0.20;;;2.70;99.90;;;;;;5055985;28;20036;-73
2023/03/07 09:43:19;;;;;;;0.17;0.17;;;2.60;99.90;;;;;;5055881;28;20029;-72
2023/03/07 09:45:47;;;;;;;5.43;4.95;;;2.60;99.90;;;;;;5111347;22;20123;-74
2023/03/07 09:48:41;;;;;;;17.10;15.90;;;2.50;99.90;;;;;;5038096;28;20029;-75
2023/03/07 09:51:15;;;;;;;15.32;14.20;;;2.50;99.90;;;;;;5037924;28;20052;-74
2023/03/07 09:53:48;;;;;;;29.02;26.73;;;2.50;99.90;;;;;;5055996;28;20025;-74
2023/03/07 09:56:44;;;;;;;10.98;10.15;;;2.70;99.90;;;;;;5037743;28;20025;-74
2023/03/07 09:59:23;;;;;;;1.38;1.27;;;2.90;99.90;;;;;;5024599;28;20032;-74
2023/03/07 10:01:54;;;;;;;0.30;0.30;;;3.00;99.90;;;;;;5038319;28;20040;-75
2023/03/07 10:04:34;;;;;;;0.10;0.10;;;3.20;99.90;;;;;;5038010;28;20025;-75
2023/03/07 10:07:01;;;;;;;0.10;0.10;;;3.40;99.90;;;;;;5055517;28;20021;-75
2023/03/07 10:09:27;;;;;;;0.20;0.20;;;3.70;99.90;;;;;;5036880;28;20040;-75
2023/03/07 10:11:59;;;;;;;0.10;0.10;;;3.80;99.90;;;;;;5055477;28;20025;-75
2023/03/07 10:14:57;;;;;;;0.10;0.10;;;3.80;99.90;;;;;;5055735;28;20025;-75
2023/03/07 10:17:55;;;;;;;0.10;0.10;;;3.80;99.90;;;;;;5055552;28;20017;-75
2023/03/07 10:20:36;;;;;;;0.13;0.13;;;3.50;99.90;;;;;;5055281;28;20021;-75
2023/03/07 10:23:32;;;;;;;0.20;0.20;;;3.30;99.90;;;;;;5037519;28;20368;-75
2023/03/07 10:26:04;;;;;;;0.20;0.20;;;3.30;99.90;;;;;;5037217;28;20079;-75
2023/03/07 10:28:32;;;;;;;0.20;0.20;;;3.50;99.90;;;;;;5055162;28;20052;-75
2023/03/07 10:31:27;;;;;;;0.20;0.20;;;3.60;99.90;;;;;;5037271;28;20025;-75
2023/03/07 10:33:54;;;;;;;0.20;0.20;;;3.80;99.90;;;;;;5037210;28;20025;-75
2023/03/07 10:36:42;;;;;;;0.15;0.15;;;4.10;99.90;;;;;;5037247;28;20044;-76
2023/03/07 10:39:43;;;;;;;0.20;0.20;;;3.90;99.90;;;;;;5054999;28;20029;-75
2023/03/07 10:42:12;;;;;;;0.20;0.20;;;3.80;99.90;;;;;;5040590;28;20033;-75
2023/03/07 10:44:38;;;;;;;0.10;0.10;;;3.90;99.90;;;;;;5037161;28;20025;-75
2023/03/07 10:47:04;;;;;;;0.20;0.20;;;3.80;99.90;;;;;;5054879;28;20090;-75
2023/03/07 10:49:42;;;;;;;0.10;0.10;;;3.90;99.90;;;;;;5036877;28;20025;-75
2023/03/07 10:52:34;;;;;;;0.10;0.10;;;4.00;99.90;;;;;;5055061;28;20029;-75
2023/03/07 10:55:28;;;;;;;0.10;0.10;;;4.00;99.90;;;;;;5054578;28;20036;-75
2023/03/07 10:58:10;;;;;;;0.20;0.20;;;4.00;99.90;;;;;;5036847;28;20021;-75
2023/03/07 11:00:35;;;;;;;0.20;0.20;;;3.90;99.90;;;;;;5054787;28;20470;-75
2023/03/07 11:03:01;;;;;;;0.10;0.10;;;4.00;99.90;;;;;;5036705;28;20025;-75
2023/03/07 11:05:31;;;;;;;0.20;0.20;;;4.20;99.90;;;;;;5036493;28;20032;-75
2023/03/07 11:07:58;;;;;;;0.30;0.30;;;4.10;99.90;;;;;;5036388;28;20013;-75
2023/03/07 11:10:35;;;;;;;0.20;0.20;;;3.80;99.90;;;;;;5054295;28;20017;-75
2023/03/07 11:13:18;;;;;;;0.20;0.20;;;3.40;99.90;;;;;;5054263;28;20100;-75
2023/03/07 11:15:44;;;;;;;0.10;0.10;;;3.30;99.90;;;;;;5054096;28;20021;-75
2023/03/07 11:18:35;;;;;;;0.20;0.20;;;3.60;99.90;;;;;;5054484;28;20024;-75
2023/03/07 11:21:01;;;;;;;0.20;0.20;;;4.10;99.90;;;;;;5053389;28;20056;-75
2023/03/07 11:23:30;;;;;;;0.20;0.20;;;4.20;99.90;;;;;;5035925;28;20118;-75
2023/03/07 11:26:16;;;;;;;0.20;0.20;;;4.20;99.90;;;;;;5054228;28;20024;-75
2023/03/07 11:28:42;;;;;;;0.22;0.22;;;4.10;99.90;;;;;;5053654;28;20597;-75
2023/03/07 11:31:33;;;;;;;0.20;0.20;;;3.60;99.90;;;;;;5053928;28;20071;-75
2023/03/07 11:34:20;;;;;;;0.17;0.17;;;3.30;99.90;;;;;;5054140;28;20028;-75
2023/03/07 11:36:53;;;;;;;0.20;0.20;;;3.50;99.90;;;;;;5053747;28;20017;-75
2023/03/07 11:39:36;;;;;;;0.17;0.17;;;4.20;99.90;;;;;;5053764;28;20037;-75
2023/03/07 11:42:15;;;;;;;0.20;0.20;;;4.40;99.90;;;;;;5035776;28;20398;-75
2023/03/07 11:44:53;;;;;;;0.10;0.10;;;4.10;99.90;;;;;;5054172;28;20025;-75
2023/03/07 11:47:28;;;;;;;0.20;0.20;;;3.50;99.90;;;;;;5053482;28;20033;-75
2023/03/07 11:50:20;;;;;;;0.30;0.30;;;3.30;99.90;;;;;;5053878;28;20025;-75
2023/03/07 11:53:21;;;;;;;0.20;0.20;;;3.70;99.90;;;;;;5035716;28;20048;-75
2023/03/07 11:56:02;;;;;;;0.20;0.20;;;3.90;99.90;;;;;;5052812;28;20108;-75
2023/03/07 11:58:51;;;;;;;0.28;0.28;;;4.30;99.90;;;;;;5053404;28;20501;-75
2023/03/07 12:01:23;;;;;;;0.20;0.20;;;4.60;99.90;;;;;;5035595;28;20090;-75
2023/03/07 12:04:17;;;;;;;0.10;0.10;;;4.90;99.90;;;;;;5053555;28;20563;-75
2023/03/07 12:06:49;;;;;;;0.15;0.15;;;4.90;99.90;;;;;;5053570;28;20035;-75
2023/03/07 12:09:38;;;;;;;0.20;0.20;;;5.00;99.90;;;;;;5054087;28;20021;-75
2023/03/07 12:12:30;;;;;;;0.10;0.10;;;5.10;99.90;;;;;;5053344;28;20027;-75
2023/03/07 12:15:02;;;;;;;0.20;0.20;;;4.50;99.90;;;;;;5022713;28;20116;-75
2023/03/07 12:17:40;;;;;;;0.13;0.13;;;4.40;99.90;;;;;;5053349;28;20021;-75
2023/03/07 12:20:17;;;;;;;0.20;0.20;;;4.70;99.90;;;;;;5053467;28;20025;-75
2023/03/07 12:23:47;;;;;;;0.20;0.20;;;5.00;99.90;;;;;;5053773;28;20021;-75
2023/03/07 12:26:32;;;;;;;0.10;0.10;;;4.70;99.90;;;;;;5006079;28;20045;-74
2023/03/07 12:29:07;;;;;;;0.10;0.10;;;5.00;99.90;;;;;;5036149;28;20029;-74
2023/03/07 12:31:43;;;;;;;0.20;0.20;;;4.40;99.90;;;;;;5054855;28;20027;-75
2023/03/07 12:34:09;;;;;;;0.20;0.20;;;3.80;99.90;;;;;;5059197;28;20020;-75
2023/03/07 12:36:50;;;;;;;0.10;0.10;;;3.80;99.90;;;;;;5059609;28;20090;-75
2023/03/07 12:39:33;;;;;;;0.20;0.20;;;4.40;99.90;;;;;;5041721;28;20029;-75
2023/03/07 12:42:03;;;;;;;0.15;0.15;;;5.10;99.90;;;;;;5060191;28;20462;-75
2023/03/07 12:44:39;;;;;;;0.20;0.20;;;5.40;99.90;;;;;;5060043;28;20036;-75
2023/03/07 12:47:26;;;;;;;0.20;0.20;;;5.40;99.90;;;;;;5059311;28;20116;-75
2023/03/07 12:50:30;;;;;;;0.10;0.10;;;5.90;99.90;;;;;;5059528;28;20061;-75
2023/03/07 12:53:15;;;;;;;0.20;0.20;;;5.50;99.90;;;;;;5045336;28;20040;-75
2023/03/07 12:55:45;;;;;;;0.20;0.20;;;5.80;99.90;;;;;;5059666;28;20013;-75
2023/03/07 12:58:35;;;;;;;0.20;0.20;;;6.10;99.90;;;;;;5059483;28;20056;-75
2023/03/07 13:01:06;;;;;;;0.20;0.20;;;6.30;99.90;;;;;;5059667;28;20025;-75
2023/03/07 13:03:51;;;;;;;0.20;0.20;;;6.20;99.90;;;;;;5060017;28;20087;-75
2023/03/07 13:06:19;;;;;;;0.20;0.20;;;5.10;99.90;;;;;;5041443;28;20025;-75
2023/03/07 13:08:50;;;;;;;0.20;0.20;;;3.50;99.90;;;;;;5059265;28;20078;-75
2023/03/07 13:11:18;;;;;;;0.20;0.20;;;2.30;99.90;;;;;;5059340;28;20021;-75